Time;durP1;ratioP1;P1;durP2;ratioP2;P2;SDS_P1;SDS_P2;PMS_P1;PMS_P2;Temp;Humidity;BMP_temperature;BMP_pressure;BME280_temperature;BME280_humidity;BME280_pressure;Samples;Min_cycle;Max_cycle;Signal;HPM_P1;HPM_P2
2021/12/04 00:01:26;;;;;;;;;18.00;16.00;;;;;6.25;30.26;98224.75;6120037;28;97792;-64
2021/12/04 00:04:32;;;;;;;;;17.00;14.00;;;;;6.18;30.62;98213.22;6120869;28;97625;-66
2021/12/04 00:07:37;;;;;;;;;14.00;12.40;;;;;6.08;30.62;98203.78;6142552;28;96566;-65
2021/12/04 00:10:41;;;;;;;;;14.00;13.00;;;;;6.06;30.66;98205.81;6143232;28;96370;-66
2021/12/04 00:13:45;;;;;;;;;16.25;13.25;;;;;6.04;30.67;98202.56;6131323;28;97529;-66
2021/12/04 00:16:50;;;;;;;;;15.00;14.00;;;;;6.04;30.61;98196.38;6123236;28;97000;-65
2021/12/04 00:19:53;;;;;;;;;15.00;13.00;;;;;5.95;30.87;98185.09;6141299;28;97269;-65
2021/12/04 00:22:58;;;;;;;;;12.00;12.00;;;;;6.03;30.36;98195.56;6136103;28;96871;-64
2021/12/04 00:26:04;;;;;;;;;11.60;11.60;;;;;6.04;30.48;98202.56;6139836;28;96561;-64
2021/12/04 00:29:09;;;;;;;;;12.00;11.00;;;;;5.93;30.42;98184.47;6138261;28;97386;-66
2021/12/04 00:32:14;;;;;;;;;13.00;11.00;;;;;6.04;30.53;98197.22;6095173;28;97298;-65
2021/12/04 00:35:21;;;;;;;;;13.60;12.00;;;;;6.03;30.35;98192.88;6141178;28;97628;-66
2021/12/04 00:51:55;;;;;;;;;12.25;11.25;;;;;6.03;30.58;98202.75;6124966;28;99914;-64
2021/12/04 00:54:58;;;;;;;;;13.00;11.00;;;;;6.02;30.68;98201.94;6136809;28;98421;-66
2021/12/04 00:58:03;;;;;;;;;12.60;10.00;;;;;6.01;30.67;98194.94;6105509;28;97694;-64
2021/12/04 01:01:08;;;;;;;;;13.75;10.00;;;;;6.02;30.79;98193.91;6134092;28;97490;-64
2021/12/04 01:04:14;;;;;;;;;13.00;12.00;;;;;5.96;30.74;98194.72;6114170;28;97731;-65
2021/12/04 01:07:17;;;;;;;;;11.00;9.00;;;;;5.68;31.00;98180.75;6137407;28;97729;-65
2021/12/04 01:10:21;;;;;;;;;13.00;11.00;;;;;5.78;30.93;98197.22;6105746;28;98405;-65
2021/12/04 01:13:24;;;;;;;;;11.00;11.00;;;;;5.67;30.99;98174.59;6129740;28;100012;-65
2021/12/04 01:16:29;;;;;;;;;11.00;11.00;;;;;5.78;31.23;98183.00;6147515;28;98489;-65
2021/12/04 01:19:33;;;;;;;;;12.20;11.00;;;;;5.74;31.08;98179.13;6119460;28;96656;-64
2021/12/04 01:22:36;;;;;;;;;12.60;12.60;;;;;5.78;31.13;98180.34;6139154;28;96718;-66
2021/12/04 01:25:40;;;;;;;;;10.60;8.60;;;;;5.70;31.41;98181.38;6147829;28;96612;-67
2021/12/04 01:28:43;;;;;;;;;14.75;12.25;;;;;5.73;31.07;98174.78;6140527;28;97200;-64
2021/12/04 01:31:48;;;;;;;;;12.20;11.20;;;;;5.58;31.38;98167.00;6132922;28;96894;-66
2021/12/04 01:34:51;;;;;;;;;11.80;10.00;;;;;5.60;31.23;98156.94;6133812;28;97416;-65
2021/12/04 01:37:57;;;;;;;;;11.00;10.00;;;;;5.59;31.15;98164.13;6141634;28;97320;-64
2021/12/04 01:41:00;;;;;;;;;12.00;10.00;;;;;5.55;31.09;98154.88;6133475;28;97441;-64
2021/12/04 01:44:06;;;;;;;;;11.40;9.40;;;;;5.63;31.15;98153.81;6126337;28;98577;-65
2021/12/04 01:47:17;;;;;;;;;12.00;10.00;;;;;5.53;31.12;98164.13;6141063;28;99363;-64
2021/12/04 01:50:22;;;;;;;;;10.20;9.20;;;;;5.61;31.15;98161.25;6138122;28;96979;-64
2021/12/04 01:53:26;;;;;;;;;10.20;9.20;;;;;5.68;30.86;98162.88;6130799;28;96615;-64
2021/12/04 01:56:31;;;;;;;;;9.00;9.00;;;;;5.69;30.97;98153.00;6141493;28;96437;-65
2021/12/04 01:59:34;;;;;;;;;11.00;10.00;;;;;5.71;30.94;98150.13;6141184;28;97352;-65
2021/12/04 02:02:40;;;;;;;;;9.00;8.60;;;;;5.71;30.84;98150.94;6119448;28;97798;-65
2021/12/04 02:05:44;;;;;;;;;11.00;10.00;;;;;5.73;30.91;98151.53;6142220;28;97802;-65
2021/12/04 02:08:47;;;;;;;;;9.60;9.00;;;;;5.77;30.74;98141.25;6141217;28;96818;-65
2021/12/04 02:11:51;;;;;;;;;8.00;7.00;;;;;5.81;30.76;98131.78;6135390;28;97063;-65
2021/12/04 02:14:54;;;;;;;;;10.75;9.25;;;;;5.79;30.61;98129.31;6141294;28;96604;-66
2021/12/04 02:18:02;;;;;;;;;8.00;7.00;;;;;5.81;30.61;98119.25;6125376;28;97647;-65
2021/12/04 02:21:07;;;;;;;;;8.60;7.00;;;;;5.80;30.38;98114.94;6138660;28;96833;-65
2021/12/04 02:24:10;;;;;;;;;9.40;8.00;;;;;5.85;30.34;98104.41;6137500;28;97570;-65
2021/12/04 02:27:14;;;;;;;;;7.60;7.00;;;;;5.86;30.27;98103.38;6137401;28;97758;-65
2021/12/04 02:30:21;;;;;;;;;9.00;8.00;;;;;5.85;30.18;98091.03;6139926;28;97438;-65
2021/12/04 02:33:24;;;;;;;;;8.00;7.00;;;;;5.89;30.13;98083.44;6128725;28;97438;-65
2021/12/04 02:36:29;;;;;;;;;8.60;8.20;;;;;5.88;30.11;98076.44;6137988;28;96790;-64
2021/12/04 02:39:35;;;;;;;;;9.00;8.00;;;;;5.90;30.04;98069.88;6139381;28;97116;-65
2021/12/04 02:42:40;;;;;;;;;10.00;9.00;;;;;5.89;29.82;98067.38;6140040;28;97882;-65
2021/12/04 02:45:44;;;;;;;;;9.00;8.00;;;;;5.92;30.06;98074.97;6140645;28;97573;-64
2021/12/04 02:48:47;;;;;;;;;6.00;6.00;;;;;5.64;29.87;98029.81;6126049;28;97405;-65
2021/12/04 02:51:52;;;;;;;;;8.00;7.00;;;;;5.87;30.02;98062.25;6115682;28;99574;-65
2021/12/04 02:54:56;;;;;;;;;7.60;5.40;;;;;5.90;29.63;98055.66;6136808;28;96368;-65
2021/12/04 02:57:59;;;;;;;;;6.00;6.00;;;;;5.81;29.59;98052.38;6142961;28;97108;-64
2021/12/04 03:01:03;;;;;;;;;6.80;6.80;;;;;5.90;29.86;98063.69;6117676;28;99501;-66
2021/12/04 03:04:09;;;;;;;;;8.00;7.00;;;;;5.80;29.68;98065.97;6115794;28;98547;-64
2021/12/04 03:07:14;;;;;;;;;7.25;7.00;;;;;5.75;29.94;98066.59;6123420;28;97376;-64
2021/12/04 03:10:18;;;;;;;;;10.00;8.00;;;;;5.79;30.22;98058.97;6106485;28;97051;-64
2021/12/04 03:13:22;;;;;;;;;9.00;8.00;;;;;5.81;29.99;98047.03;6130462;28;96932;-64
2021/12/04 03:16:25;;;;;;;;;9.40;9.00;;;;;5.78;30.04;98052.78;6143881;28;96910;-63
2021/12/04 03:19:29;;;;;;;;;10.00;9.00;;;;;5.79;30.50;98042.91;6142568;28;97117;-64
2021/12/04 03:22:34;;;;;;;;;11.50;10.00;;;;;5.75;30.95;98049.72;6134498;28;96977;-65
2021/12/04 03:25:37;;;;;;;;;10.80;9.00;;;;;5.73;31.32;98049.91;6140358;28;96989;-64
2021/12/04 03:28:40;;;;;;;;;10.40;10.00;;;;;5.69;31.47;98051.38;6142001;28;96839;-64
2021/12/04 03:32:05;;;;;;;;;10.00;10.00;;;;;5.68;31.61;98057.75;6133553;28;97285;-64
2021/12/04 03:35:21;;;;;;;;;9.00;9.00;;;;;5.60;31.42;98053.47;6119530;28;98091;-63
2021/12/04 03:41:47;;;;;;;;;11.50;10.00;;;;;5.46;31.58;98048.38;6118012;28;96880;-63
2021/12/04 03:44:51;;;;;;;;;11.25;8.75;;;;;5.36;32.16;98039.97;6156295;28;96669;-65
2021/12/04 03:48:03;;;;;;;;;10.00;9.00;;;;;5.35;32.05;98043.66;6123119;28;98423;-64
2021/12/04 03:51:08;;;;;;;;;12.80;8.00;;;;;5.22;31.40;98023.97;6118411;28;96994;-64
2021/12/04 03:54:12;;;;;;;;;9.20;8.80;;;;;5.33;31.33;98035.84;6145629;28;96867;-64
2021/12/04 03:57:18;;;;;;;;;9.00;9.00;;;;;5.36;31.27;98035.44;6082899;28;98543;-64
2021/12/04 04:00:23;;;;;;;;;8.00;7.80;;;;;5.02;31.25;97993.78;6126785;28;96508;-64
2021/12/04 04:03:27;;;;;;;;;10.00;8.25;;;;;5.23;31.30;98038.94;6108909;28;97106;-64
2021/12/04 04:06:30;;;;;;;;;7.00;7.00;;;;;5.18;31.71;98036.06;6138639;28;97167;-64
2021/12/04 04:09:37;;;;;;;;;9.00;8.50;;;;;5.15;31.89;98044.53;6121092;28;97796;-64
2021/12/04 04:12:40;;;;;;;;;8.60;8.00;;;;;5.13;31.85;98035.88;6143669;28;97800;-64
2021/12/04 04:15:43;;;;;;;;;9.20;8.00;;;;;5.18;31.80;98035.28;6134176;28;97133;-64
2021/12/04 04:18:47;;;;;;;;;8.00;8.00;;;;;5.20;31.43;98039.38;6139028;28;97575;-64
2021/12/04 04:21:55;;;;;;;;;8.40;8.00;;;;;5.20;31.48;98031.34;6143116;28;98560;-65
2021/12/04 04:24:59;;;;;;;;;8.40;7.60;;;;;5.18;31.54;98028.06;6120622;28;97993;-63
2021/12/04 04:28:03;;;;;;;;;7.50;7.50;;;;;5.14;31.73;98026.84;6137046;28;96552;-65
2021/12/04 04:31:08;;;;;;;;;8.00;7.80;;;;;5.13;31.57;98016.38;6132894;28;96433;-65
2021/12/04 04:34:12;;;;;;;;;8.20;7.00;;;;;5.14;31.16;98013.47;6129365;28;97809;-64
2021/12/04 04:37:22;;;;;;;;;7.00;6.00;;;;;5.16;31.07;98014.09;6136934;28;97062;-64
2021/12/04 05:01:14;;;;;;;;;6.20;6.20;;;;;5.26;30.02;97983.47;6084821;28;96512;-65
2021/12/04 05:11:12;;;;;;;;;7.75;7.00;;;;;5.22;30.19;97983.88;6111827;28;98078;-64
2021/12/04 05:14:19;;;;;;;;;4.00;4.00;;;;;5.20;30.34;97971.75;6139189;28;96338;-64
2021/12/04 05:17:30;;;;;;;;;5.00;5.00;;;;;5.16;30.16;97970.53;6119650;28;96884;-64
2021/12/04 05:20:36;;;;;;;;;7.60;7.00;;;;;5.12;30.86;97970.13;6103907;28;96716;-64
2021/12/04 05:23:42;;;;;;;;;7.00;7.00;;;;;5.06;30.87;97959.47;6131711;28;97991;-63
2021/12/04 05:26:45;;;;;;;;;8.00;6.00;;;;;5.04;30.91;97957.00;6128405;28;97280;-64
2021/12/04 05:29:50;;;;;;;;;6.00;5.00;;;;;5.04;30.33;97951.66;6142752;28;96364;-64
2021/12/04 05:32:53;;;;;;;;;8.60;6.60;;;;;4.98;30.77;97955.19;6121510;28;99007;-63
2021/12/04 05:35:57;;;;;;;;;6.00;5.00;;;;;4.66;30.86;97908.78;6096554;28;97714;-64
2021/12/04 05:39:00;;;;;;;;;6.00;5.00;;;;;4.79;30.65;97935.47;6108322;28;99594;-63
2021/12/04 05:42:04;;;;;;;;;7.00;6.00;;;;;4.71;30.76;97925.00;6129323;28;99252;-64
2021/12/04 05:45:16;;;;;;;;;7.60;6.60;;;;;4.82;30.51;97936.09;6126764;28;97429;-63
2021/12/04 05:48:27;;;;;;;;;5.00;5.00;;;;;4.90;30.08;97939.34;6142208;28;97448;-64
2021/12/04 05:51:47;;;;;;;;;7.40;7.00;;;;;4.94;30.73;97943.25;6118430;28;96928;-64
2021/12/04 05:58:11;;;;;;;;;7.40;5.00;;;;;5.10;29.90;97932.13;6133855;28;96763;-63
2021/12/04 06:01:16;;;;;;;;;6.00;5.00;;;;;5.10;29.88;97929.44;6125599;28;97151;-64
2021/12/04 06:04:20;;;;;;;;;6.00;5.40;;;;;5.12;30.36;97922.06;6143072;28;96879;-63
2021/12/04 06:07:23;;;;;;;;;7.00;5.75;;;;;5.19;29.78;97917.50;6139819;28;97625;-64
2021/12/04 06:10:26;;;;;;;;;5.00;5.00;;;;;5.34;30.19;97924.41;6144319;28;97160;-64
2021/12/04 06:13:29;;;;;;;;;6.00;5.60;;;;;5.47;29.83;97906.47;6124700;28;98523;-63
2021/12/04 06:16:35;;;;;;;;;5.25;5.00;;;;;5.59;29.64;97899.44;6129107;28;97664;-64
2021/12/04 06:22:58;;;;;;;;;7.00;6.00;;;;;5.58;29.38;97847.00;6135306;28;97235;-63
2021/12/04 06:26:05;;;;;;;;;6.00;5.00;;;;;5.78;29.64;97860.22;6140146;28;97171;-64
2021/12/04 06:29:09;;;;;;;;;8.00;7.00;;;;;6.06;29.29;97891.94;6140147;28;96684;-64
2021/12/04 06:32:16;;;;;;;;;6.80;6.00;;;;;6.11;29.26;97888.66;6140881;28;98030;-64
2021/12/04 06:35:22;;;;;;;;;6.00;5.00;;;;;6.06;29.21;97878.56;6141863;28;96773;-64
2021/12/04 06:38:26;;;;;;;;;6.00;6.00;;;;;6.23;29.55;97882.38;6140092;28;97474;-64
2021/12/04 06:41:30;;;;;;;;;6.50;6.00;;;;;6.28;29.61;97879.03;6140633;28;97831;-66
2021/12/04 06:44:33;;;;;;;;;5.00;5.00;;;;;6.29;30.89;97884.19;6137168;28;97975;-65
2021/12/04 06:47:51;;;;;;;;;7.20;5.80;;;;;6.36;29.86;97878.75;6139741;28;96997;-64
2021/12/04 06:50:57;;;;;;;;;6.00;6.00;;;;;6.34;29.89;97878.16;6137262;28;97995;-64
2021/12/04 06:54:04;;;;;;;;;6.40;6.40;;;;;6.30;30.39;97876.97;6132639;28;97580;-65
2021/12/04 06:57:10;;;;;;;;;7.00;6.00;;;;;6.30;30.30;97869.75;6139398;28;96480;-64
2021/12/04 07:00:13;;;;;;;;;6.60;6.00;;;;;6.35;30.65;97858.38;6143022;28;96576;-64
2021/12/04 07:03:18;;;;;;;;;5.80;5.00;;;;;6.43;30.91;97858.94;6137408;28;97460;-65
2021/12/04 07:06:22;;;;;;;;;7.00;6.20;;;;;6.49;31.08;97866.09;6165348;28;97505;-64
2021/12/04 07:09:25;;;;;;;;;7.00;6.00;;;;;6.54;31.56;97870.78;6133709;28;97438;-64
2021/12/04 07:12:29;;;;;;;;;7.00;6.50;;;;;6.56;31.56;97866.00;6129503;28;98110;-65
2021/12/04 07:15:32;;;;;;;;;9.40;9.00;;;;;6.51;31.92;97874.69;6127525;28;98390;-65
2021/12/04 07:18:38;;;;;;;;;9.50;9.25;;;;;6.37;32.23;97846.41;6129454;28;97876;-65
2021/12/04 07:21:44;;;;;;;;;7.00;6.25;;;;;6.59;31.82;97862.91;6130618;28;97025;-65
2021/12/04 07:24:47;;;;;;;;;6.00;5.25;;;;;6.63;31.93;97868.63;6139093;28;97103;-67
2021/12/04 07:27:51;;;;;;;;;6.00;6.00;;;;;6.70;31.62;97866.69;6134308;28;96753;-64
2021/12/04 07:30:54;;;;;;;;;5.00;5.00;;;;;6.83;31.74;97862.03;6132930;28;97424;-64
2021/12/04 07:33:59;;;;;;;;;7.50;7.00;;;;;6.94;31.79;97863.94;6135758;28;97390;-64
2021/12/04 07:37:03;;;;;;;;;7.00;6.00;;;;;7.06;31.04;97850.63;6136767;28;97273;-64
2021/12/04 07:40:07;;;;;;;;;5.60;5.00;;;;;7.26;30.51;97861.94;6116275;28;98283;-63
2021/12/04 07:43:12;;;;;;;;;5.40;5.00;;;;;7.50;30.02;97860.16;6131065;28;96890;-65
2021/12/04 07:46:15;;;;;;;;;7.00;7.00;;;;;7.76;31.24;97849.06;6138018;28;97481;-64
2021/12/04 07:49:22;;;;;;;;;7.00;6.00;;;;;7.91;31.09;97845.16;6135285;28;97436;-64
2021/12/04 07:52:28;;;;;;;;;8.00;7.20;;;;;8.06;30.80;97851.69;6125942;28;99371;-65
2021/12/04 07:55:33;;;;;;;;;8.40;7.00;;;;;8.18;30.59;97846.34;6135050;28;99767;-64
2021/12/04 07:58:37;;;;;;;;;8.40;7.60;;;;;8.42;30.85;97856.09;6138631;28;96584;-64
2021/12/04 08:01:40;;;;;;;;;9.25;9.00;;;;;8.54;32.00;97838.13;6132400;28;99554;-64
2021/12/04 08:04:45;;;;;;;;;9.00;8.00;;;;;8.75;31.44;97854.72;6128251;28;96793;-66
2021/12/04 08:07:50;;;;;;;;;9.00;8.20;;;;;8.91;31.79;97845.91;6110462;28;97402;-66
2021/12/04 08:10:53;;;;;;;;;11.00;8.00;;;;;8.82;31.01;97809.69;6119488;28;98121;-65
2021/12/04 08:13:57;;;;;;;;;8.00;7.25;;;;;9.23;31.21;97836.38;6116369;28;97994;-64
2021/12/04 08:17:00;;;;;;;;;11.00;10.00;;;;;9.48;30.23;97825.31;6109649;28;99123;-65
2021/12/04 08:20:05;;;;;;;;;10.00;9.50;;;;;9.69;29.62;97813.84;6113859;28;96998;-64
2021/12/04 08:23:09;;;;;;;;;11.00;10.00;;;;;9.80;29.27;97815.66;6111717;28;97788;-66
2021/12/04 08:26:13;;;;;;;;;11.20;10.00;;;;;10.00;29.44;97821.38;6132113;28;97255;-65
2021/12/04 08:29:16;;;;;;;;;10.50;9.00;;;;;10.12;29.59;97829.38;6117597;28;98602;-64
2021/12/04 08:32:22;;;;;;;;;15.40;14.00;;;;;10.04;29.20;97834.34;6111970;28;97615;-65
2021/12/04 08:35:31;;;;;;;;;14.00;12.00;;;;;10.01;28.51;97827.59;6125197;28;96886;-65
2021/12/04 08:38:35;;;;;;;;;13.00;11.75;;;;;9.94;28.13;97826.91;6116812;28;98966;-64
2021/12/04 08:41:40;;;;;;;;;11.00;9.00;;;;;9.84;27.86;97821.34;6118230;28;98663;-65
2021/12/04 08:44:44;;;;;;;;;10.00;9.00;;;;;9.75;28.19;97818.25;6137416;28;97825;-65
2021/12/04 08:47:47;;;;;;;;;12.75;12.00;;;;;9.73;28.50;97816.84;6133722;28;97476;-65
2021/12/04 08:50:52;;;;;;;;;11.00;10.60;;;;;9.70;28.87;97815.47;6129859;28;97239;-65
2021/12/04 08:53:56;;;;;;;;;12.00;10.00;;;;;9.73;29.37;97811.47;6129740;28;98328;-64
2021/12/04 08:56:59;;;;;;;;;12.00;10.00;;;;;9.69;29.63;97811.16;6135806;28;96706;-64
2021/12/04 09:00:07;;;;;;;;;11.40;10.00;;;;;9.69;29.34;97816.53;6135961;28;96573;-64
2021/12/04 09:03:11;;;;;;;;;11.40;11.00;;;;;9.67;29.14;97809.75;6126471;28;96641;-64
2021/12/04 09:06:20;;;;;;;;;11.00;10.40;;;;;9.68;29.31;97817.56;6136905;28;97438;-64
2021/12/04 09:09:24;;;;;;;;;10.00;10.00;;;;;9.49;29.52;97818.84;6135445;28;97023;-64
2021/12/04 09:12:48;;;;;;;;;13.50;12.00;;;;;9.65;29.46;97809.19;6125697;28;97410;-65
2021/12/04 09:15:52;;;;;;;;;12.00;9.40;;;;;9.90;28.90;97802.38;6137772;28;96383;-64
2021/12/04 09:18:56;;;;;;;;;15.00;12.00;;;;;10.14;28.29;97803.03;6136447;28;97148;-65
2021/12/04 09:22:01;;;;;;;;;14.40;13.40;;;;;10.48;28.05;97800.34;6136802;28;96448;-65
2021/12/04 09:25:26;;;;;;;;;15.00;14.00;;;;;11.10;27.16;97801.72;6136619;28;96679;-64
2021/12/04 09:28:40;;;;;;;;;10.80;10.80;;;;;11.73;26.68;97797.56;6134704;28;100068;-64
2021/12/04 09:32:16;;;;;;;;;18.80;16.00;;;;;12.05;26.57;97789.50;6128774;28;97496;-64
2021/12/04 09:35:41;;;;;;;;;11.00;9.00;;;;;12.19;26.23;97787.16;6160844;28;96646;-64
2021/12/04 10:02:33;;;;;;;;;10.40;10.00;;;;;13.72;24.50;97742.44;6122558;28;96978;-64
2021/12/04 10:16:22;;;;;;;;;4.40;4.00;;;;;14.59;19.85;97732.34;6137403;28;97223;-65
2021/12/04 10:19:35;;;;;;;;;4.00;4.00;;;;;14.66;19.93;97728.25;6123105;28;96649;-65
2021/12/04 10:23:00;;;;;;;;;5.00;5.00;;;;;14.77;19.82;97717.38;6132074;28;97896;-66
2021/12/04 10:32:55;;;;;;;;;7.00;7.00;;;;;15.26;20.60;97712.81;6142701;28;97061;-68
2021/12/04 10:36:03;;;;;;;;;8.60;7.00;;;;;15.40;20.11;97697.50;6133649;28;97769;-68
2021/12/04 10:39:09;;;;;;;;;6.80;5.00;;;;;15.37;19.71;97691.84;6137647;28;97260;-68
2021/12/04 10:42:15;;;;;;;;;6.00;6.00;;;;;15.12;19.86;97696.31;6146425;28;96480;-68
2021/12/04 10:45:31;;;;;;;;;7.00;6.00;;;;;15.08;19.98;97691.72;6133809;28;96748;-67
2021/12/04 10:48:36;;;;;;;;;7.00;6.00;;;;;14.99;19.76;97685.28;6134691;28;97675;-67
2021/12/04 10:51:46;;;;;;;;;6.00;5.00;;;;;14.92;20.19;97665.75;6134784;28;98072;-68
2021/12/04 10:54:52;;;;;;;;;5.60;5.00;;;;;14.89;20.83;97675.28;6116077;28;96701;-67
2021/12/04 11:04:59;;;;;;;;;5.00;5.00;;;;;14.98;19.63;97665.47;6121103;28;97562;-68
2021/12/04 11:39:08;;;;;;;;;11.00;9.00;;;;;18.94;17.64;97616.38;6104679;28;98406;-71
2021/12/04 11:42:22;;;;;;;;;10.00;9.00;;;;;19.50;17.18;97570.59;6112263;28;98532;-70
2021/12/04 11:45:29;;;;;;;;;12.00;9.80;;;;;20.07;17.25;97604.38;6119746;28;97497;-70
2021/12/04 11:48:34;;;;;;;;;12.75;11.00;;;;;20.13;17.00;97603.13;6121180;28;99981;-70
2021/12/04 11:51:48;;;;;;;;;11.40;11.00;;;;;20.00;17.65;97599.34;6119866;28;97843;-70
2021/12/04 11:54:57;;;;;;;;;9.00;8.50;;;;;19.73;17.08;97597.59;6117153;28;97985;-69
2021/12/04 11:58:00;;;;;;;;;10.50;9.00;;;;;19.43;17.57;97581.91;6119207;28;97223;-69
2021/12/04 12:01:09;;;;;;;;;10.00;9.00;;;;;19.27;17.09;97577.94;6133411;28;97381;-70
2021/12/04 12:04:13;;;;;;;;;11.00;9.00;;;;;19.07;17.35;97581.13;6091780;28;99527;-69
2021/12/04 12:07:20;;;;;;;;;11.00;10.00;;;;;18.73;18.29;97557.03;6134634;28;96987;-69
2021/12/04 12:10:26;;;;;;;;;10.00;10.00;;;;;18.46;18.02;97566.88;6109774;28;99514;-69
2021/12/04 12:13:34;;;;;;;;;10.00;9.00;;;;;18.33;18.07;97555.94;6089516;28;99497;-69
2021/12/04 12:16:43;;;;;;;;;9.25;8.00;;;;;18.13;18.41;97549.78;6118391;28;97359;-69
2021/12/04 12:19:55;;;;;;;;;9.60;9.00;;;;;18.07;18.75;97547.47;6099742;28;98440;-70
2021/12/04 12:23:07;;;;;;;;;9.80;8.80;;;;;17.83;18.60;97550.38;6090638;28;98561;-69
2021/12/04 12:26:16;;;;;;;;;11.50;10.00;;;;;17.41;19.37;97539.63;6119576;28;97883;-69
2021/12/04 12:33:16;;;;;;;;;10.60;9.40;;;;;16.55;20.11;97538.22;6125891;28;96758;-69
2021/12/04 12:36:23;;;;;;;;;10.50;9.00;;;;;16.07;21.05;97542.91;6110462;28;96725;-69
2021/12/04 12:39:27;;;;;;;;;13.40;13.00;;;;;15.73;21.84;97540.28;6137795;28;96694;-70
2021/12/04 12:42:33;;;;;;;;;12.00;11.80;;;;;15.30;22.06;97518.34;6114298;28;97031;-69
2021/12/04 12:45:37;;;;;;;;;12.80;11.40;;;;;15.04;22.54;97533.25;6118884;28;99785;-69
2021/12/04 12:48:47;;;;;;;;;12.60;12.00;;;;;14.78;23.27;97534.53;6119352;28;96603;-69
2021/12/04 12:52:00;;;;;;;;;12.00;11.00;;;;;14.52;23.14;97531.94;6105692;28;96643;-69
2021/12/04 12:55:11;;;;;;;;;12.00;11.00;;;;;14.28;23.30;97526.34;6115815;28;97994;-69
2021/12/04 12:58:19;;;;;;;;;12.00;11.00;;;;;14.05;23.17;97537.03;6135187;28;97430;-69
2021/12/04 13:11:43;;;;;;;;;13.00;11.00;;;;;13.22;24.56;97529.34;6114673;28;96882;-70
2021/12/04 13:14:51;;;;;;;;;11.33;9.67;;;;;13.05;24.46;97517.16;6088617;28;97386;-70
2021/12/04 13:17:54;;;;;;;;;10.00;10.00;;;;;12.95;24.88;97515.25;6098224;28;100303;-70
2021/12/04 13:21:03;;;;;;;;;7.20;7.00;;;;;12.50;24.22;97519.53;6119583;28;97625;-70
2021/12/04 13:24:10;;;;;;;;;7.00;7.00;;;;;12.48;23.58;97518.16;6095634;28;97990;-70
2021/12/04 13:30:18;;;;;;;;;7.00;7.00;;;;;11.94;23.19;97515.81;6122460;28;97304;-70
2021/12/04 13:33:22;;;;;;;;;7.80;7.00;;;;;11.83;23.46;97516.84;6112835;28;98447;-71
2021/12/04 13:36:29;;;;;;;;;7.00;6.00;;;;;11.63;23.53;97520.22;6117907;28;97747;-71
2021/12/04 13:39:33;;;;;;;;;7.00;6.75;;;;;11.60;23.72;97518.03;6105450;28;99507;-71
2021/12/04 13:42:40;;;;;;;;;7.25;7.00;;;;;11.60;23.86;97520.75;6113817;28;96669;-70
2021/12/04 13:45:44;;;;;;;;;8.00;8.00;;;;;11.55;24.07;97523.41;6121283;28;97129;-71
2021/12/04 13:48:49;;;;;;;;;11.40;10.00;;;;;11.54;23.86;97524.47;6107624;28;97474;-70
2021/12/04 13:51:54;;;;;;;;;7.00;7.00;;;;;11.47;23.94;97529.31;6100775;28;97223;-70
2021/12/04 13:55:03;;;;;;;;;9.00;8.00;;;;;11.45;23.99;97528.75;6105567;28;97329;-71
2021/12/04 13:58:08;;;;;;;;;11.75;11.00;;;;;11.44;23.96;97523.59;6105897;28;96848;-71
2021/12/04 14:01:11;;;;;;;;;11.00;9.60;;;;;11.43;24.27;97530.91;6102593;28;99933;-72
2021/12/04 14:04:19;;;;;;;;;11.00;9.00;;;;;11.39;23.97;97531.66;6123309;28;97472;-71
2021/12/04 14:07:23;;;;;;;;;12.00;11.00;;;;;11.16;24.08;97511.28;6124099;28;96873;-71
2021/12/04 14:10:30;;;;;;;;;13.00;12.00;;;;;11.34;24.06;97531.66;6106280;28;99619;-70
2021/12/04 14:13:39;;;;;;;;;13.40;13.00;;;;;11.22;24.20;97524.56;6093987;28;97241;-71
2021/12/04 14:16:44;;;;;;;;;17.60;14.20;;;;;11.27;24.22;97529.16;6108918;28;99358;-71
2021/12/04 14:19:47;;;;;;;;;12.00;12.00;;;;;11.22;24.25;97523.75;6129786;28;96665;-71
2021/12/04 14:22:53;;;;;;;;;13.60;12.60;;;;;11.12;24.33;97526.34;6101296;28;99249;-71
2021/12/04 14:26:02;;;;;;;;;13.25;13.00;;;;;10.99;24.47;97530.31;6124945;28;97142;-70
2021/12/04 14:29:13;;;;;;;;;14.60;13.00;;;;;11.01;24.61;97519.25;6123465;28;97436;-70
2021/12/04 14:32:23;;;;;;;;;17.20;15.00;;;;;11.00;24.37;97523.81;6120912;28;96808;-71
2021/12/04 14:35:29;;;;;;;;;13.00;11.00;;;;;10.98;24.51;97522.47;6133465;28;97578;-71
2021/12/04 14:38:32;;;;;;;;;13.75;11.00;;;;;10.94;24.82;97527.56;6122654;28;97246;-71
2021/12/04 14:41:35;;;;;;;;;16.00;13.00;;;;;10.92;24.67;97526.19;6115431;28;96705;-71
2021/12/04 14:44:41;;;;;;;;;15.20;13.00;;;;;10.83;24.47;97513.19;6121177;28;97590;-71
2021/12/04 14:47:47;;;;;;;;;14.25;12.25;;;;;10.87;24.68;97518.88;6132991;28;96836;-71
2021/12/04 14:50:55;;;;;;;;;14.60;13.40;;;;;10.86;24.77;97517.25;6124107;28;97824;-69
2021/12/04 14:53:59;;;;;;;;;13.00;12.00;;;;;10.89;24.86;97521.31;6135934;28;96754;-72
2021/12/04 14:57:03;;;;;;;;;14.00;12.00;;;;;10.94;24.88;97521.38;6126711;28;97036;-71
2021/12/04 15:00:11;;;;;;;;;13.00;11.40;;;;;10.85;24.86;97510.22;6126662;28;97874;-70
2021/12/04 15:03:18;;;;;;;;;13.00;12.00;;;;;10.74;24.72;97511.22;6106247;28;96889;-70
2021/12/04 15:06:23;;;;;;;;;12.00;12.00;;;;;10.66;24.87;97509.78;6133843;28;97744;-70
2021/12/04 15:09:28;;;;;;;;;12.00;12.00;;;;;10.47;25.15;97497.75;6135257;28;97421;-69
2021/12/04 15:12:34;;;;;;;;;12.00;11.40;;;;;10.52;24.95;97513.97;6136429;28;97118;-70
2021/12/04 15:15:40;;;;;;;;;12.00;11.00;;;;;10.64;25.02;97516.50;6140423;28;98119;-70
2021/12/04 15:18:44;;;;;;;;;13.40;12.00;;;;;10.46;25.07;97496.09;6135448;28;96660;-70
2021/12/04 15:22:08;;;;;;;;;14.00;12.00;;;;;10.67;25.03;97518.69;6130554;28;97653;-70
2021/12/04 15:25:13;;;;;;;;;12.60;11.60;;;;;10.66;25.05;97528.66;6137986;28;98084;-69
2021/12/04 15:28:18;;;;;;;;;11.60;11.00;;;;;10.53;25.26;97534.47;6137959;28;96691;-70
2021/12/04 15:31:26;;;;;;;;;12.00;11.00;;;;;10.60;25.19;97537.78;6138995;28;97109;-69
2021/12/04 15:34:32;;;;;;;;;12.00;10.00;;;;;10.68;25.19;97550.78;6135783;28;97177;-70
2021/12/04 15:37:41;;;;;;;;;8.00;8.00;;;;;10.69;25.28;97557.00;6138863;28;97908;-70
2021/12/04 15:40:56;;;;;;;;;18.00;15.00;;;;;10.49;25.21;97546.00;6137866;28;97224;-70
2021/12/04 15:44:17;;;;;;;;;16.00;14.00;;;;;10.51;25.91;97560.81;6127827;28;97490;-70
2021/12/04 15:47:28;;;;;;;;;15.40;13.40;;;;;10.54;26.35;97554.13;6124684;28;96865;-70
2021/12/04 15:50:57;;;;;;;;;15.25;14.00;;;;;10.48;27.23;97565.91;6116354;28;96926;-69
2021/12/04 15:54:08;;;;;;;;;18.60;17.60;;;;;10.33;28.19;97556.59;6142347;28;97482;-69
2021/12/04 15:57:14;;;;;;;;;19.00;17.00;;;;;10.41;28.63;97571.50;6138578;28;96996;-71
2021/12/04 16:00:18;;;;;;;;;12.00;11.00;;;;;9.90;31.50;97502.75;6105648;28;97824;-70
2021/12/04 16:03:26;;;;;;;;;16.00;14.00;;;;;10.24;31.51;97563.50;6112201;28;97070;-69
2021/12/04 16:06:38;;;;;;;;;10.00;9.00;;;;;10.32;32.80;97568.44;6139044;28;97427;-70
2021/12/04 16:09:42;;;;;;;;;9.00;8.00;;;;;10.21;33.86;97564.03;6133201;28;97157;-71
2021/12/04 16:12:48;;;;;;;;;7.25;7.00;;;;;10.21;33.78;97561.31;6134242;28;96695;-70
2021/12/04 16:15:51;;;;;;;;;9.00;7.00;;;;;9.85;34.37;97535.00;6115886;28;97809;-70
2021/12/04 16:18:57;;;;;;;;;8.00;8.00;;;;;10.15;34.42;97580.31;6110559;28;100068;-70
2021/12/04 16:22:02;;;;;;;;;7.00;7.00;;;;;9.97;34.31;97559.88;6129600;28;98331;-71
2021/12/04 16:25:10;;;;;;;;;7.60;7.60;;;;;10.10;34.91;97583.78;6119448;28;98646;-71
2021/12/04 16:28:33;;;;;;;;;5.00;5.00;;;;;10.06;34.99;97579.97;6138375;28;97546;-71
2021/12/04 16:32:15;;;;;;;;;6.00;6.00;;;;;10.10;34.73;97574.88;6126286;28;98060;-70
2021/12/04 16:35:36;;;;;;;;;7.00;7.00;;;;;10.12;34.71;97570.84;6122203;28;96728;-70
2021/12/04 16:38:40;;;;;;;;;8.00;7.00;;;;;10.16;34.93;97560.44;6138584;28;97133;-70
2021/12/04 16:41:50;;;;;;;;;7.00;6.00;;;;;10.17;34.94;97560.19;6132477;28;97791;-70
2021/12/04 16:44:54;;;;;;;;;7.00;6.00;;;;;10.16;35.21;97555.88;6132315;28;97803;-70
2021/12/04 16:48:01;;;;;;;;;8.00;8.00;;;;;10.15;35.09;97553.41;6104557;28;99131;-71
2021/12/04 16:57:59;;;;;;;;;10.25;10.00;;;;;9.89;35.58;97553.06;6124440;28;97408;-70
2021/12/04 17:01:02;;;;;;;;;11.00;9.40;;;;;9.79;35.37;97550.25;6131014;28;96805;-70
2021/12/04 17:04:07;;;;;;;;;9.00;8.00;;;;;9.43;35.79;97546.25;6101126;28;96978;-71
2021/12/04 17:07:12;;;;;;;;;8.40;8.00;;;;;9.36;36.23;97540.22;6137501;28;97103;-70
2021/12/04 17:10:16;;;;;;;;;8.00;7.00;;;;;9.46;36.06;97536.88;6137541;28;96595;-70